Time;durP1;ratioP1;P1;durP2;ratioP2;P2;SDS_P1;SDS_P2;PMS_P1;PMS_P2;Temp;Humidity;BMP_temperature;BMP_pressure;BME280_temperature;BME280_humidity;BME280_pressure;Samples;Min_cycle;Max_cycle;Signal;HPM_P1;HPM_P2
2023/07/29 00:02:07;;;;;;;2.92;1.90;;;23.20;64.00;;;;;;5056091;28;20052;-80
2023/07/29 00:04:33;;;;;;;2.10;1.70;;;23.20;64.10;;;;;;5056104;28;20469;-80
2023/07/29 00:06:58;;;;;;;2.53;1.90;;;23.20;64.00;;;;;;5023649;28;20101;-80
2023/07/29 00:09:24;;;;;;;2.47;1.95;;;23.20;64.00;;;;;;5022711;28;20532;-80
2023/07/29 00:11:50;;;;;;;3.38;2.45;;;23.20;64.10;;;;;;5040063;28;20175;-79
2023/07/29 00:14:15;;;;;;;2.50;1.90;;;23.20;64.10;;;;;;5055778;28;20033;-79
2023/07/29 00:16:42;;;;;;;2.67;2.10;;;23.10;64.00;;;;;;5039056;28;20120;-79
2023/07/29 00:19:08;;;;;;;3.00;2.30;;;23.10;64.10;;;;;;5023109;28;20048;-80
2023/07/29 00:21:34;;;;;;;2.40;2.08;;;23.10;64.00;;;;;;5055581;28;20444;-79
2023/07/29 00:24:01;;;;;;;3.42;2.13;;;23.10;64.10;;;;;;5055523;28;20048;-80
2023/07/29 00:26:28;;;;;;;2.38;1.85;;;23.10;64.10;;;;;;5006864;28;20021;-79
2023/07/29 00:28:55;;;;;;;2.22;1.98;;;23.00;64.10;;;;;;5055694;28;20028;-80
2023/07/29 00:31:21;;;;;;;2.55;2.00;;;23.00;64.10;;;;;;5055561;28;20119;-80
2023/07/29 00:33:47;;;;;;;2.65;2.20;;;23.00;64.10;;;;;;5039724;28;20131;-79
2023/07/29 00:36:14;;;;;;;2.95;2.28;;;23.00;64.20;;;;;;5023601;28;20086;-80
2023/07/29 00:38:40;;;;;;;2.63;2.05;;;22.90;64.10;;;;;;5038664;28;20036;-79
2023/07/29 00:41:06;;;;;;;3.00;2.10;;;22.90;64.20;;;;;;5038853;28;20032;-79
2023/07/29 00:43:32;;;;;;;2.67;2.03;;;22.90;64.20;;;;;;5039594;28;20044;-80
2023/07/29 00:45:59;;;;;;;2.10;1.90;;;22.90;64.20;;;;;;5039629;28;20032;-79
2023/07/29 00:48:25;;;;;;;2.70;2.00;;;22.90;64.30;;;;;;5055705;28;20020;-79
2023/07/29 00:50:51;;;;;;;2.47;2.13;;;22.80;64.20;;;;;;5055705;28;20478;-80
2023/07/29 00:53:17;;;;;;;2.40;2.10;;;22.80;64.30;;;;;;5055546;28;20116;-79
2023/07/29 00:55:43;;;;;;;3.28;2.50;;;22.70;64.30;;;;;;5055590;28;20166;-79
2023/07/29 00:58:10;;;;;;;2.63;2.10;;;22.80;64.40;;;;;;5055329;28;20027;-80
2023/07/29 01:00:37;;;;;;;2.55;2.05;;;22.70;64.40;;;;;;5038890;28;20086;-79
2023/07/29 01:03:03;;;;;;;2.40;2.13;;;22.70;64.30;;;;;;5073687;28;20130;-80
2023/07/29 01:05:36;;;;;;;2.10;1.77;;;22.70;64.40;;;;;;5038726;28;20078;-80
2023/07/29 01:08:45;;;;;;;2.50;2.10;;;22.70;64.50;;;;;;5055529;28;20025;-79
2023/07/29 01:11:13;;;;;;;2.70;2.03;;;22.70;64.60;;;;;;5038008;28;20056;-79
2023/07/29 01:13:47;;;;;;;2.55;2.05;;;22.60;64.50;;;;;;5055016;28;20033;-79
2023/07/29 01:16:36;;;;;;;3.35;1.92;;;22.60;64.60;;;;;;5055435;28;20585;-79
2023/07/29 01:19:09;;;;;;;2.70;2.25;;;22.60;64.60;;;;;;5037245;28;20079;-80
2023/07/29 01:21:36;;;;;;;3.30;1.75;;;22.50;64.60;;;;;;5055111;28;20065;-79
2023/07/29 01:24:02;;;;;;;2.63;2.17;;;22.50;64.60;;;;;;5073006;28;20031;-79
2023/07/29 01:26:29;;;;;;;2.60;1.92;;;22.50;64.70;;;;;;5055174;28;20028;-80
2023/07/29 01:28:56;;;;;;;2.67;2.08;;;22.50;64.70;;;;;;5022633;28;20023;-79
2023/07/29 01:31:33;;;;;;;2.70;2.00;;;22.50;64.80;;;;;;5038564;28;20149;-79
2023/07/29 01:34:17;;;;;;;2.53;1.90;;;22.50;64.80;;;;;;5073080;28;20032;-79
2023/07/29 01:36:45;;;;;;;2.35;1.90;;;22.40;64.80;;;;;;5055273;28;20100;-79
2023/07/29 01:39:12;;;;;;;3.17;2.10;;;22.40;64.80;;;;;;5055105;28;20028;-80
2023/07/29 01:41:39;;;;;;;3.65;2.03;;;22.40;64.80;;;;;;5054887;28;20021;-79
2023/07/29 01:44:07;;;;;;;3.03;2.10;;;22.40;64.90;;;;;;5054561;28;20044;-79
2023/07/29 01:46:34;;;;;;;3.17;2.40;;;22.30;64.80;;;;;;5021760;28;20037;-79
2023/07/29 01:49:00;;;;;;;2.33;1.90;;;22.30;64.90;;;;;;5055849;28;20534;-79
2023/07/29 01:51:25;;;;;;;3.13;2.40;;;22.30;64.90;;;;;;5058735;28;20029;-79
2023/07/29 01:53:51;;;;;;;2.38;1.88;;;22.30;64.90;;;;;;5058414;28;20128;-79
2023/07/29 01:56:17;;;;;;;2.25;1.90;;;22.30;65.00;;;;;;5058565;28;20392;-79
2023/07/29 01:58:50;;;;;;;2.93;2.13;;;22.30;65.00;;;;;;5043641;28;20503;-79
2023/07/29 02:01:16;;;;;;;2.90;2.30;;;22.30;65.00;;;;;;5041705;28;20283;-80
2023/07/29 02:03:42;;;;;;;2.75;2.28;;;22.30;65.00;;;;;;5025452;28;20041;-79
2023/07/29 02:06:08;;;;;;;3.13;2.13;;;22.20;65.00;;;;;;5041797;28;20044;-79
2023/07/29 02:08:34;;;;;;;3.22;2.60;;;22.30;65.10;;;;;;5041679;28;20393;-79
2023/07/29 02:10:59;;;;;;;3.03;2.40;;;22.20;65.10;;;;;;5041878;28;20381;-80
2023/07/29 02:13:25;;;;;;;2.78;2.10;;;22.30;65.20;;;;;;5008813;28;20024;-80
2023/07/29 02:15:51;;;;;;;2.83;2.30;;;22.20;65.10;;;;;;5058307;28;20032;-79
2023/07/29 02:18:17;;;;;;;2.70;2.22;;;22.20;65.20;;;;;;5041123;28;20029;-80
2023/07/29 02:20:48;;;;;;;2.92;2.10;;;22.20;65.20;;;;;;5041444;28;20074;-80
2023/07/29 02:23:16;;;;;;;2.80;2.40;;;22.20;65.30;;;;;;5026466;28;20120;-79
2023/07/29 02:25:42;;;;;;;3.42;2.53;;;22.20;65.30;;;;;;5058140;28;20111;-79
2023/07/29 02:28:07;;;;;;;3.17;2.60;;;22.20;65.40;;;;;;5041320;28;20457;-79
2023/07/29 02:30:33;;;;;;;2.97;2.20;;;22.20;65.40;;;;;;5057899;28;20120;-79
2023/07/29 02:33:01;;;;;;;2.47;2.15;;;22.20;65.40;;;;;;5057733;28;20123;-79
2023/07/29 02:35:27;;;;;;;3.22;2.53;;;22.20;65.40;;;;;;5041654;28;20078;-80
2023/07/29 02:37:53;;;;;;;2.45;1.98;;;22.20;65.60;;;;;;5008468;28;20052;-79
2023/07/29 02:40:22;;;;;;;3.38;2.50;;;22.10;65.50;;;;;;5009564;28;20040;-79
2023/07/29 02:42:48;;;;;;;2.75;2.40;;;22.10;65.50;;;;;;5057707;28;20048;-79
2023/07/29 02:45:14;;;;;;;2.85;2.33;;;22.10;65.50;;;;;;5041313;28;20475;-79
2023/07/29 02:47:40;;;;;;;3.00;2.20;;;22.10;65.50;;;;;;5057637;28;20036;-79
2023/07/29 02:50:06;;;;;;;3.20;2.45;;;22.10;65.50;;;;;;5057646;28;20089;-80
2023/07/29 02:52:31;;;;;;;2.90;2.10;;;22.10;66.20;;;;;;5058094;28;20058;-79
2023/07/29 02:54:57;;;;;;;3.40;2.45;;;22.10;65.50;;;;;;5040782;28;20056;-80
2023/07/29 02:57:23;;;;;;;2.25;2.05;;;22.10;65.60;;;;;;5040877;28;20146;-79
2023/07/29 02:59:48;;;;;;;2.58;2.10;;;22.10;65.60;;;;;;5008014;28;20048;-80
2023/07/29 03:02:16;;;;;;;2.88;2.45;;;22.10;65.60;;;;;;5056948;28;20362;-79
2023/07/29 03:04:42;;;;;;;3.13;2.53;;;22.10;65.60;;;;;;5040148;28;20040;-79
2023/07/29 03:07:07;;;;;;;3.63;2.50;;;22.10;66.30;;;;;;5057353;28;20032;-80
2023/07/29 03:09:34;;;;;;;3.42;2.38;;;22.10;65.60;;;;;;5057009;28;20029;-79
2023/07/29 03:12:00;;;;;;;2.65;2.15;;;22.10;65.60;;;;;;5057113;28;20024;-80
2023/07/29 03:14:26;;;;;;;3.42;2.45;;;22.00;65.60;;;;;;5040281;28;20477;-80
2023/07/29 03:16:52;;;;;;;2.78;2.20;;;22.10;65.70;;;;;;5057639;28;20032;-80
2023/07/29 03:19:18;;;;;;;3.42;2.42;;;22.00;65.60;;;;;;5056900;28;20067;-80
2023/07/29 03:21:44;;;;;;;3.30;2.55;;;22.00;65.70;;;;;;5040525;28;20056;-79
2023/07/29 03:24:09;;;;;;;2.85;1.98;;;22.00;65.70;;;;;;5057077;28;20122;-79
2023/07/29 03:26:36;;;;;;;3.10;2.20;;;22.00;65.70;;;;;;5040845;28;20032;-79
2023/07/29 03:29:01;;;;;;;2.55;1.90;;;22.00;65.80;;;;;;5040212;28;20499;-80
2023/07/29 03:31:27;;;;;;;2.58;2.20;;;22.00;65.70;;;;;;5039811;28;20055;-79
2023/07/29 03:33:53;;;;;;;2.45;2.03;;;22.00;65.70;;;;;;5040187;28;20071;-79
2023/07/29 03:36:19;;;;;;;2.95;2.28;;;22.00;65.70;;;;;;5007495;28;20055;-79
2023/07/29 03:38:45;;;;;;;2.63;2.10;;;21.90;65.70;;;;;;5040277;28;20037;-79
2023/07/29 03:41:11;;;;;;;2.95;2.22;;;22.00;65.80;;;;;;5074907;28;20029;-80
2023/07/29 03:43:37;;;;;;;2.20;1.90;;;22.00;65.80;;;;;;5056283;28;20101;-81
2023/07/29 03:46:03;;;;;;;2.95;2.10;;;22.00;65.80;;;;;;5039843;28;20123;-80
2023/07/29 03:48:31;;;;;;;2.92;2.10;;;22.00;65.80;;;;;;5057108;28;20401;-81
2023/07/29 03:50:56;;;;;;;2.30;1.85;;;21.90;65.80;;;;;;5007401;28;20029;-80
2023/07/29 03:53:22;;;;;;;2.70;2.10;;;21.90;65.80;;;;;;5039593;28;20032;-80
2023/07/29 03:55:49;;;;;;;2.33;1.90;;;21.90;65.80;;;;;;5056085;28;20043;-80
2023/07/29 03:58:15;;;;;;;2.10;1.90;;;21.90;65.80;;;;;;5024349;28;20036;-80
2023/07/29 04:00:41;;;;;;;2.95;1.92;;;21.90;65.80;;;;;;5006599;28;20032;-79
2023/07/29 04:03:08;;;;;;;2.30;1.88;;;21.90;65.80;;;;;;5023073;28;20037;-79
2023/07/29 04:05:34;;;;;;;2.25;1.85;;;21.90;65.80;;;;;;5039517;28;20033;-80
2023/07/29 04:08:00;;;;;;;2.60;1.95;;;21.90;65.80;;;;;;5039559;28;20036;-80
2023/07/29 04:10:25;;;;;;;2.22;1.80;;;21.90;65.80;;;;;;5006913;28;20545;-79
2023/07/29 04:12:51;;;;;;;1.90;1.70;;;21.80;65.80;;;;;;5039776;28;20082;-80
2023/07/29 04:15:17;;;;;;;1.95;1.60;;;21.90;65.80;;;;;;5055984;28;20473;-79
2023/07/29 04:17:43;;;;;;;1.98;1.77;;;21.80;65.80;;;;;;5039313;28;20043;-80
2023/07/29 04:20:10;;;;;;;2.20;1.80;;;21.80;65.80;;;;;;5038945;28;20389;-79
2023/07/29 04:22:35;;;;;;;2.88;1.83;;;21.80;65.80;;;;;;5039245;28;20055;-83
2023/07/29 04:25:01;;;;;;;2.85;1.65;;;21.80;65.80;;;;;;5055873;28;20028;-80
2023/07/29 04:27:27;;;;;;;2.88;1.90;;;21.80;65.80;;;;;;5055799;28;20029;-79
2023/07/29 04:29:53;;;;;;;2.00;1.48;;;21.80;65.80;;;;;;5055766;28;20073;-80
2023/07/29 04:32:18;;;;;;;1.80;1.50;;;21.80;65.80;;;;;;5055597;28;20028;-79
2023/07/29 04:34:44;;;;;;;2.08;1.75;;;21.70;65.70;;;;;;5055682;28;20561;-79
2023/07/29 04:37:10;;;;;;;1.92;1.58;;;21.70;65.70;;;;;;5039094;28;20041;-79
2023/07/29 04:39:36;;;;;;;1.50;1.40;;;21.70;65.80;;;;;;5055837;28;20469;-80
2023/07/29 04:42:02;;;;;;;1.83;1.55;;;21.70;65.70;;;;;;5022964;28;20120;-79
2023/07/29 04:44:27;;;;;;;1.60;1.48;;;21.70;65.80;;;;;;5006160;28;20174;-79
2023/07/29 04:46:53;;;;;;;1.67;1.45;;;21.70;65.80;;;;;;5055606;28;20025;-80
2023/07/29 04:49:19;;;;;;;1.85;1.45;;;21.70;65.70;;;;;;5039186;28;20111;-80
2023/07/29 04:51:45;;;;;;;1.67;1.40;;;21.70;65.70;;;;;;5039837;28;20382;-80
2023/07/29 04:54:11;;;;;;;1.60;1.30;;;21.60;65.70;;;;;;5039120;28;20473;-79
2023/07/29 04:56:36;;;;;;;1.83;1.42;;;21.60;65.70;;;;;;5073386;28;20401;-80
2023/07/29 04:59:02;;;;;;;1.55;1.45;;;21.60;65.70;;;;;;5038759;28;20039;-80
2023/07/29 05:01:28;;;;;;;1.85;1.38;;;21.60;65.70;;;;;;5055557;28;20029;-79
2023/07/29 05:03:53;;;;;;;1.48;1.30;;;21.60;65.70;;;;;;5022537;28;20139;-80
2023/07/29 05:06:19;;;;;;;2.13;1.30;;;21.60;65.70;;;;;;5038846;28;20052;-80
2023/07/29 05:08:45;;;;;;;1.73;1.35;;;21.60;65.80;;;;;;5055288;28;20029;-80
2023/07/29 05:11:11;;;;;;;1.83;1.50;;;21.60;65.70;;;;;;5022604;28;20036;-80
2023/07/29 05:13:37;;;;;;;1.55;1.30;;;21.50;65.70;;;;;;5038613;28;20041;-80
2023/07/29 05:16:03;;;;;;;1.40;1.23;;;21.50;65.70;;;;;;5054923;28;20083;-80
2023/07/29 05:18:29;;;;;;;1.92;1.30;;;21.50;65.70;;;;;;5037986;28;20057;-79
2023/07/29 05:20:55;;;;;;;1.38;1.27;;;21.50;65.80;;;;;;5055135;28;20028;-80
2023/07/29 05:23:21;;;;;;;1.75;1.30;;;21.50;65.70;;;;;;5039064;28;20052;-80
2023/07/29 05:25:47;;;;;;;1.40;1.30;;;21.50;65.80;;;;;;5059387;28;20043;-80
2023/07/29 05:28:12;;;;;;;1.40;1.30;;;21.50;65.80;;;;;;5042358;28;20457;-80
2023/07/29 05:30:40;;;;;;;1.58;1.30;;;21.50;66.40;;;;;;5025780;28;20485;-81
2023/07/29 05:33:09;;;;;;;1.23;1.08;;;21.50;65.80;;;;;;5042690;28;20118;-79
2023/07/29 05:35:34;;;;;;;1.52;1.30;;;21.50;65.80;;;;;;5042954;28;20125;-80
2023/07/29 05:38:00;;;;;;;1.20;1.13;;;21.50;65.80;;;;;;5076476;28;20472;-79
2023/07/29 05:40:26;;;;;;;1.67;1.20;;;21.40;65.70;;;;;;5042871;28;20472;-80
2023/07/29 05:42:52;;;;;;;1.65;1.30;;;21.50;65.80;;;;;;5059317;28;20036;-79
2023/07/29 05:45:18;;;;;;;1.10;1.00;;;21.50;65.80;;;;;;5077264;28;20037;-80
2023/07/29 05:47:44;;;;;;;1.48;1.20;;;21.40;65.70;;;;;;5058638;28;20572;-79
2023/07/29 05:50:10;;;;;;;1.23;1.13;;;21.50;65.80;;;;;;5042357;28;20040;-80
2023/07/29 05:52:36;;;;;;;1.20;1.10;;;21.50;65.80;;;;;;5026200;28;20055;-79
2023/07/29 05:55:02;;;;;;;1.20;1.10;;;21.50;65.90;;;;;;5059257;28;20056;-79
2023/07/29 05:57:28;;;;;;;2.38;1.25;;;21.40;65.80;;;;;;5041799;28;20519;-79
2023/07/29 05:59:54;;;;;;;1.60;1.10;;;21.40;65.90;;;;;;5026171;28;20342;-80
2023/07/29 06:02:19;;;;;;;1.85;1.35;;;21.50;66.00;;;;;;5058119;28;20082;-79
2023/07/29 06:04:45;;;;;;;1.63;1.30;;;21.40;65.90;;;;;;5058232;28;20072;-80
2023/07/29 06:07:11;;;;;;;1.75;1.02;;;21.40;65.90;;;;;;5025597;28;20090;-79
2023/07/29 06:09:37;;;;;;;1.33;1.10;;;21.40;65.90;;;;;;5025320;28;20036;-79
2023/07/29 06:12:03;;;;;;;1.13;1.10;;;21.50;66.00;;;;;;5074965;28;20141;-79
2023/07/29 06:14:28;;;;;;;1.40;1.30;;;21.50;65.90;;;;;;5041560;28;20035;-80
2023/07/29 06:16:54;;;;;;;1.40;1.30;;;21.40;66.00;;;;;;5058704;28;20091;-79
2023/07/29 06:19:20;;;;;;;1.45;1.30;;;21.40;66.70;;;;;;5008512;28;20152;-79
2023/07/29 06:21:46;;;;;;;1.20;1.10;;;21.40;66.00;;;;;;5058067;28;20056;-79
2023/07/29 06:24:12;;;;;;;1.58;1.38;;;21.40;66.10;;;;;;5041209;28;20067;-79
2023/07/29 06:26:38;;;;;;;2.10;1.50;;;21.40;66.00;;;;;;5041426;28;20513;-82
2023/07/29 06:29:04;;;;;;;1.88;1.40;;;21.40;66.00;;;;;;5058276;28;20024;-80
2023/07/29 06:31:30;;;;;;;1.30;1.20;;;21.40;66.10;;;;;;5057884;28;20060;-79
2023/07/29 06:33:56;;;;;;;1.83;1.42;;;21.40;66.10;;;;;;5041435;28;20089;-80
2023/07/29 06:36:21;;;;;;;1.33;1.17;;;21.40;66.10;;;;;;5040590;28;20493;-78
2023/07/29 06:38:47;;;;;;;1.67;1.20;;;21.40;66.20;;;;;;5008250;28;20029;-79
2023/07/29 06:41:13;;;;;;;1.52;1.30;;;21.40;66.10;;;;;;5057571;28;20075;-79
2023/07/29 06:43:39;;;;;;;1.73;1.40;;;21.50;66.20;;;;;;5040884;28;20037;-79
2023/07/29 06:46:05;;;;;;;1.65;1.40;;;21.50;66.10;;;;;;5057736;28;20098;-79
2023/07/29 06:48:30;;;;;;;1.52;1.33;;;21.50;66.20;;;;;;5024516;28;20556;-77
2023/07/29 06:51:00;;;;;;;2.20;1.50;;;21.50;66.20;;;;;;5024135;28;20024;-77
2023/07/29 06:53:26;;;;;;;1.95;1.40;;;21.50;66.10;;;;;;5057484;28;20028;-78
2023/07/29 06:55:52;;;;;;;1.88;1.45;;;21.50;66.10;;;;;;5040660;28;20025;-79
2023/07/29 06:58:18;;;;;;;2.05;1.60;;;21.50;66.10;;;;;;5057092;28;20449;-79
2023/07/29 07:00:44;;;;;;;2.30;1.40;;;21.50;66.10;;;;;;5057531;28;20033;-79
2023/07/29 07:03:09;;;;;;;1.42;1.33;;;21.50;66.10;;;;;;5056979;28;20060;-78
2023/07/29 07:05:35;;;;;;;1.65;1.38;;;21.60;66.10;;;;;;5040505;28;20036;-78
2023/07/29 07:08:01;;;;;;;1.90;1.40;;;21.60;66.10;;;;;;5007660;28;20075;-78
2023/07/29 07:10:27;;;;;;;2.33;1.58;;;21.60;66.10;;;;;;5056927;28;20521;-79
2023/07/29 07:12:52;;;;;;;1.50;1.40;;;21.60;66.10;;;;;;5056651;28;20128;-79
2023/07/29 07:15:18;;;;;;;1.60;1.50;;;21.60;66.10;;;;;;5024106;28;20036;-79
2023/07/29 07:17:44;;;;;;;1.33;1.20;;;21.60;66.10;;;;;;5040344;28;20397;-79
2023/07/29 07:20:10;;;;;;;1.60;1.33;;;21.60;66.10;;;;;;5040121;28;20049;-79
2023/07/29 07:22:36;;;;;;;1.95;1.45;;;21.70;66.10;;;;;;5075035;28;20082;-77
2023/07/29 07:25:01;;;;;;;2.13;1.60;;;21.70;66.00;;;;;;5074249;28;20048;-79
2023/07/29 07:27:27;;;;;;;2.25;1.77;;;21.70;66.00;;;;;;5040355;28;20032;-80
2023/07/29 07:29:53;;;;;;;1.92;1.42;;;21.70;66.00;;;;;;5056495;28;20414;-80
2023/07/29 07:32:19;;;;;;;1.88;1.33;;;21.80;66.00;;;;;;5073426;28;20032;-80
2023/07/29 07:34:44;;;;;;;2.85;1.77;;;21.80;66.00;;;;;;5056417;28;20477;-79
2023/07/29 07:37:10;;;;;;;2.58;1.60;;;21.80;66.00;;;;;;5056849;28;20037;-79
2023/07/29 07:39:36;;;;;;;2.97;1.70;;;21.90;66.00;;;;;;5056451;28;20029;-80
2023/07/29 07:42:01;;;;;;;1.70;1.50;;;21.90;66.00;;;;;;5057185;28;20423;-79
2023/07/29 07:44:27;;;;;;;1.98;1.40;;;21.90;66.00;;;;;;5039617;28;20080;-79
2023/07/29 07:46:56;;;;;;;1.90;1.50;;;21.90;66.00;;;;;;5038791;28;20397;-80
2023/07/29 07:49:22;;;;;;;1.90;1.48;;;21.90;65.90;;;;;;5074561;28;20115;-81
2023/07/29 07:51:48;;;;;;;1.65;1.40;;;22.00;65.90;;;;;;5056169;28;20032;-80
2023/07/29 07:54:13;;;;;;;2.65;1.73;;;22.00;65.90;;;;;;5056285;28;20537;-80
2023/07/29 07:56:39;;;;;;;1.77;1.50;;;22.00;65.80;;;;;;5039567;28;20036;-80
2023/07/29 07:59:05;;;;;;;1.80;1.55;;;22.00;65.80;;;;;;5039518;28;20024;-79
2023/07/29 08:01:38;;;;;;;1.70;1.45;;;22.10;65.80;;;;;;5074029;28;20039;-80
2023/07/29 08:04:04;;;;;;;2.65;1.80;;;22.10;65.80;;;;;;5055859;28;20033;-80
2023/07/29 08:06:31;;;;;;;1.67;1.52;;;22.10;65.70;;;;;;5056854;28;20182;-80
2023/07/29 08:08:57;;;;;;;1.90;1.70;;;22.20;65.70;;;;;;5039034;28;20370;-80
2023/07/29 08:11:23;;;;;;;1.90;1.60;;;22.20;65.60;;;;;;5040379;28;20040;-82
2023/07/29 08:13:48;;;;;;;1.67;1.48;;;22.30;65.60;;;;;;5039309;28;20044;-79
2023/07/29 08:16:14;;;;;;;1.88;1.60;;;22.30;65.50;;;;;;5039371;28;20127;-80
2023/07/29 08:18:40;;;;;;;2.22;1.60;;;22.30;65.50;;;;;;5039877;28;20385;-80
2023/07/29 08:21:06;;;;;;;2.08;1.65;;;22.40;65.50;;;;;;5040095;28;20345;-80
2023/07/29 08:23:33;;;;;;;1.80;1.58;;;22.40;65.40;;;;;;5055496;28;20487;-81
2023/07/29 08:26:01;;;;;;;1.50;1.40;;;22.40;65.40;;;;;;5055716;28;20020;-80
2023/07/29 08:28:38;;;;;;;2.15;1.70;;;22.40;65.30;;;;;;5055948;28;20036;-80
2023/07/29 08:31:04;;;;;;;1.45;1.20;;;22.50;65.40;;;;;;5055879;28;20461;-79
2023/07/29 08:33:32;;;;;;;1.45;1.35;;;22.50;65.30;;;;;;5055653;28;20029;-82
2023/07/29 08:35:58;;;;;;;1.52;1.40;;;22.50;65.20;;;;;;5055714;28;20102;-79
2023/07/29 08:38:24;;;;;;;2.15;1.60;;;22.60;65.20;;;;;;5055204;28;20481;-78
2023/07/29 08:41:19;;;;;;;1.98;1.52;;;22.60;65.20;;;;;;5056315;28;20020;-79
2023/07/29 08:43:52;;;;;;;1.88;1.50;;;22.60;65.10;;;;;;5068217;28;20098;-79
2023/07/29 08:46:19;;;;;;;2.20;1.30;;;22.70;65.00;;;;;;5055664;28;20515;-79
2023/07/29 08:48:46;;;;;;;1.70;1.23;;;22.70;65.00;;;;;;5055015;28;20025;-79
2023/07/29 08:51:12;;;;;;;1.42;1.30;;;22.70;64.90;;;;;;5054869;28;20071;-79
2023/07/29 08:53:39;;;;;;;1.92;1.30;;;22.70;64.90;;;;;;5055132;28;20052;-79
2023/07/29 08:56:06;;;;;;;1.30;1.20;;;22.80;65.00;;;;;;5054868;28;20029;-79
2023/07/29 08:58:33;;;;;;;1.63;1.33;;;22.80;64.90;;;;;;5074497;28;20045;-79
2023/07/29 09:00:59;;;;;;;2.25;1.48;;;22.80;64.90;;;;;;5026232;28;20078;-79
2023/07/29 09:03:25;;;;;;;1.70;1.50;;;22.90;65.00;;;;;;5026820;28;20036;-79
2023/07/29 09:05:52;;;;;;;1.67;1.20;;;22.80;64.90;;;;;;5059723;28;20040;-79
2023/07/29 09:08:18;;;;;;;1.35;1.25;;;22.90;64.90;;;;;;5042561;28;20025;-79
2023/07/29 09:10:43;;;;;;;1.50;1.40;;;22.90;64.80;;;;;;5059322;28;20408;-76
2023/07/29 09:13:09;;;;;;;1.80;1.40;;;23.00;64.80;;;;;;5042558;28;20128;-78
2023/07/29 09:15:36;;;;;;;1.42;1.30;;;23.00;64.80;;;;;;5059219;28;20038;-79
2023/07/29 09:18:16;;;;;;;1.08;0.98;;;23.00;64.70;;;;;;5076919;28;20036;-78
2023/07/29 09:20:41;;;;;;;1.20;1.10;;;23.10;64.80;;;;;;5077470;28;20056;-79
2023/07/29 09:23:12;;;;;;;1.38;1.27;;;23.10;64.60;;;;;;5058723;28;20173;-79
2023/07/29 09:25:38;;;;;;;1.55;1.23;;;23.10;64.60;;;;;;5043310;28;20145;-80
2023/07/29 09:28:12;;;;;;;1.42;1.33;;;23.20;64.60;;;;;;5059051;28;20028;-80
2023/07/29 09:30:39;;;;;;;2.13;1.20;;;23.20;64.60;;;;;;5077752;28;20105;-77
2023/07/29 09:33:05;;;;;;;1.50;1.30;;;23.20;64.50;;;;;;5042329;28;20499;-77
2023/07/29 09:35:33;;;;;;;1.52;1.30;;;23.30;64.60;;;;;;5042112;28;20055;-79
2023/07/29 09:37:59;;;;;;;1.25;1.17;;;23.30;64.50;;;;;;5042459;28;20086;-79
2023/07/29 09:40:25;;;;;;;1.10;1.00;;;23.30;64.50;;;;;;5076381;28;20036;-78
2023/07/29 09:42:54;;;;;;;1.65;1.33;;;23.30;64.40;;;;;;5042549;28;20041;-78
2023/07/29 09:45:25;;;;;;;1.17;1.08;;;23.30;64.40;;;;;;5058822;28;20139;-78
2023/07/29 09:47:56;;;;;;;0.95;0.95;;;23.40;64.40;;;;;;5059416;28;20039;-78
2023/07/29 09:50:26;;;;;;;1.17;1.00;;;23.40;64.30;;;;;;5059179;28;20024;-78
2023/07/29 09:52:54;;;;;;;0.90;0.90;;;23.40;64.20;;;;;;5042213;28;20077;-78
2023/07/29 09:55:23;;;;;;;0.90;0.90;;;23.50;64.30;;;;;;5058794;28;20461;-78
2023/07/29 09:57:53;;;;;;;1.05;1.02;;;23.50;64.20;;;;;;5058337;28;20489;-77
2023/07/29 10:00:19;;;;;;;1.48;1.20;;;23.50;64.10;;;;;;5042054;28;20117;-78
2023/07/29 10:02:46;;;;;;;1.30;1.20;;;23.60;64.10;;;;;;5041571;28;20033;-77
2023/07/29 10:05:11;;;;;;;1.25;1.15;;;23.60;64.00;;;;;;5058660;28;20068;-78
2023/07/29 10:07:39;;;;;;;1.30;1.13;;;23.60;64.00;;;;;;5075987;28;20150;-78
2023/07/29 10:10:06;;;;;;;1.20;1.10;;;23.60;64.00;;;;;;5057709;28;20127;-78
2023/07/29 10:12:32;;;;;;;1.65;1.10;;;23.70;64.00;;;;;;5042065;28;20066;-77
2023/07/29 10:15:06;;;;;;;1.00;0.95;;;23.70;64.00;;;;;;5058363;28;20037;-77
2023/07/29 10:17:37;;;;;;;1.30;0.90;;;23.70;64.00;;;;;;5058512;28;20032;-77
2023/07/29 10:20:08;;;;;;;1.10;1.00;;;23.80;64.00;;;;;;5057926;28;20052;-75
2023/07/29 10:22:35;;;;;;;1.63;1.00;;;23.80;64.00;;;;;;5058465;28;20028;-78
2023/07/29 10:25:07;;;;;;;0.98;0.77;;;23.90;64.00;;;;;;5057689;28;20135;-78
2023/07/29 10:27:43;;;;;;;1.20;1.10;;;23.90;63.90;;;;;;5041220;28;20025;-79
2023/07/29 10:30:12;;;;;;;0.98;0.90;;;24.00;63.90;;;;;;5075850;28;20024;-79
2023/07/29 10:32:38;;;;;;;1.20;1.10;;;24.10;63.80;;;;;;5057647;28;20481;-80
2023/07/29 10:35:05;;;;;;;1.05;1.05;;;24.20;63.80;;;;;;5058258;28;20078;-79
2023/07/29 10:37:30;;;;;;;1.20;1.10;;;24.20;63.60;;;;;;5057788;28;20075;-80
2023/07/29 10:39:56;;;;;;;1.23;1.05;;;24.30;63.60;;;;;;5057718;28;20060;-77
2023/07/29 10:42:22;;;;;;;1.08;0.98;;;24.30;63.40;;;;;;5075773;28;20350;-81
2023/07/29 10:44:50;;;;;;;1.10;1.00;;;24.40;63.40;;;;;;5041301;28;20036;-81
2023/07/29 10:47:23;;;;;;;1.13;0.95;;;24.50;63.40;;;;;;5041198;28;20058;-80
2023/07/29 10:49:54;;;;;;;1.17;1.07;;;24.50;63.30;;;;;;5059139;28;20040;-80
2023/07/29 10:52:41;;;;;;;1.17;1.08;;;24.60;63.20;;;;;;5057728;28;20521;-80
2023/07/29 10:55:26;;;;;;;1.00;1.00;;;24.70;63.20;;;;;;5057246;28;20036;-79
2023/07/29 10:58:03;;;;;;;1.10;1.00;;;24.70;63.10;;;;;;5040926;28;20074;-80
2023/07/29 11:00:32;;;;;;;1.13;0.90;;;24.80;63.10;;;;;;5075558;28;20033;-80
2023/07/29 11:03:06;;;;;;;0.88;0.88;;;24.80;63.00;;;;;;5057091;28;20076;-79
2023/07/29 11:05:48;;;;;;;1.05;1.02;;;24.90;63.80;;;;;;5040528;28;20111;-80
2023/07/29 11:08:28;;;;;;;1.05;0.95;;;24.90;63.10;;;;;;5074797;28;20107;-80
2023/07/29 11:11:04;;;;;;;0.88;0.80;;;25.00;63.00;;;;;;5074868;28;20036;-80
2023/07/29 11:13:31;;;;;;;0.90;0.90;;;25.00;63.00;;;;;;5075018;28;20075;-80
2023/07/29 11:15:58;;;;;;;1.08;0.98;;;25.00;62.90;;;;;;5073440;28;20028;-79
2023/07/29 11:18:33;;;;;;;1.25;1.15;;;25.10;63.00;;;;;;5057079;28;20380;-80
2023/07/29 11:21:00;;;;;;;1.00;1.00;;;25.10;63.00;;;;;;5057237;28;20028;-79
2023/07/29 11:23:34;;;;;;;1.17;0.88;;;25.10;62.90;;;;;;5040635;28;20045;-80
2023/07/29 11:26:01;;;;;;;0.85;0.85;;;25.20;62.90;;;;;;5056872;28;20054;-79
2023/07/29 11:28:28;;;;;;;1.23;0.98;;;25.20;62.80;;;;;;5056720;28;20071;-80
2023/07/29 11:30:57;;;;;;;1.35;1.00;;;25.20;62.80;;;;;;5040972;28;20339;-80
2023/07/29 11:33:25;;;;;;;1.25;1.13;;;25.30;62.90;;;;;;5039694;28;20036;-80
2023/07/29 11:35:51;;;;;;;1.20;0.98;;;25.30;62.80;;;;;;5074546;28;20154;-80
2023/07/29 11:38:18;;;;;;;1.17;1.02;;;25.30;62.80;;;;;;5056421;28;20025;-82
2023/07/29 11:40:54;;;;;;;1.33;1.23;;;25.30;62.70;;;;;;5040561;28;20035;-81
2023/07/29 11:43:20;;;;;;;1.08;1.02;;;25.40;62.80;;;;;;5056712;28;20428;-81
2023/07/29 11:45:46;;;;;;;1.00;0.90;;;25.40;62.70;;;;;;5040325;28;20029;-80
2023/07/29 11:48:11;;;;;;;1.40;0.95;;;25.40;62.70;;;;;;5023526;28;20024;-82
2023/07/29 11:50:37;;;;;;;1.20;1.10;;;25.40;62.60;;;;;;5056242;28;20032;-81
2023/07/29 11:53:03;;;;;;;2.25;1.10;;;25.40;62.60;;;;;;5056477;28;20033;-80
2023/07/29 11:55:29;;;;;;;1.10;0.93;;;25.40;62.60;;;;;;5074375;28;20033;-79
2023/07/29 11:57:55;;;;;;;1.25;1.15;;;25.40;62.60;;;;;;5073832;28;20028;-80
2023/07/29 12:00:21;;;;;;;1.13;1.02;;;25.40;62.60;;;;;;5039539;28;20039;-80
2023/07/29 12:02:49;;;;;;;1.10;1.00;;;25.40;62.60;;;;;;5074270;28;20108;-79
2023/07/29 12:05:15;;;;;;;1.02;1.00;;;25.40;62.70;;;;;;5039661;28;20446;-80
2023/07/29 12:07:43;;;;;;;0.90;0.90;;;25.40;62.70;;;;;;5039466;28;20123;-79
2023/07/29 12:10:10;;;;;;;1.15;1.05;;;25.40;62.70;;;;;;5056033;28;20031;-79
2023/07/29 12:12:46;;;;;;;1.38;1.00;;;25.40;62.80;;;;;;5055973;28;20024;-79
2023/07/29 12:15:12;;;;;;;1.10;1.00;;;25.40;62.90;;;;;;5039502;28;20043;-80
2023/07/29 12:17:42;;;;;;;1.40;1.30;;;25.40;62.90;;;;;;5056159;28;20036;-79
2023/07/29 12:20:10;;;;;;;1.17;1.05;;;25.30;62.90;;;;;;5073996;28;20063;-79
2023/07/29 12:22:36;;;;;;;0.95;0.93;;;25.30;62.90;;;;;;5056406;28;20119;-79
2023/07/29 12:25:03;;;;;;;0.90;0.90;;;25.30;63.00;;;;;;5039311;28;20174;-79
2023/07/29 12:27:30;;;;;;;1.23;0.95;;;25.30;63.10;;;;;;5039407;28;20415;-80
2023/07/29 12:29:56;;;;;;;1.65;1.10;;;25.30;63.10;;;;;;5055893;28;20377;-80
2023/07/29 12:32:25;;;;;;;0.90;0.90;;;25.20;63.10;;;;;;5039172;28;20083;-80
2023/07/29 12:34:53;;;;;;;2.00;1.08;;;25.20;63.20;;;;;;5055547;28;20093;-80
2023/07/29 12:37:19;;;;;;;1.58;1.05;;;25.20;63.30;;;;;;5055554;28;20032;-80
2023/07/29 12:39:45;;;;;;;1.10;1.00;;;25.20;63.40;;;;;;5072281;28;20495;-80
2023/07/29 12:42:11;;;;;;;0.88;0.82;;;25.20;63.40;;;;;;5072620;28;20123;-80
2023/07/29 12:44:38;;;;;;;2.08;1.00;;;25.10;63.40;;;;;;5022707;28;20044;-80
2023/07/29 12:47:05;;;;;;;0.98;0.98;;;25.10;63.40;;;;;;5055516;28;20078;-80
2023/07/29 12:49:31;;;;;;;0.80;0.80;;;25.10;63.50;;;;;;5073161;28;20033;-80